Time;durP1;ratioP1;P1;durP2;ratioP2;P2;SDS_P1;SDS_P2;PMS_P1;PMS_P2;Temp;Humidity;BMP_temperature;BMP_pressure;BME280_temperature;BME280_humidity;BME280_pressure;Samples;Min_cycle;Max_cycle;Signal;HPM_P1;HPM_P2
2023/01/12 00:01:55;;;;;;;;;2.50;1.50;;;;;;;;5115929;27;45684;-75
2023/01/12 00:04:20;;;;;;;;;3.75;2.00;;;;;;;;5113725;27;45392;-74
2023/01/12 00:06:45;;;;;;;;;3.75;0.50;;;;;;;;5111378;27;45562;-75
2023/01/12 00:09:11;;;;;;;;;1.00;1.00;;;;;;;;5115803;27;45406;-74
2023/01/12 00:11:37;;;;;;;;;3.75;1.50;;;;;;;;5114260;27;45589;-75
2023/01/12 00:14:03;;;;;;;;;2.75;1.00;;;;;;;;5114610;27;45332;-75
2023/01/12 00:16:36;;;;;;;;;2.50;1.25;;;;;;;;5111308;27;45606;-75
2023/01/12 00:19:17;;;;;;;;;5.25;1.00;;;;;;;;5110602;27;48410;-75
2023/01/12 00:24:22;;;;;;;;;4.25;1.50;;;;;;;;5114285;27;45400;-74
2023/01/12 00:26:48;;;;;;;;;2.50;2.25;;;;;;;;5115045;27;45405;-75
2023/01/12 00:29:14;;;;;;;;;4.00;2.00;;;;;;;;5112802;27;46234;-74
2023/01/12 00:31:39;;;;;;;;;3.00;3.00;;;;;;;;5115723;27;45481;-75
2023/01/12 00:34:04;;;;;;;;;7.00;3.00;;;;;;;;5115327;27;45398;-75
2023/01/12 00:36:29;;;;;;;;;2.25;1.25;;;;;;;;5115201;27;45404;-75
2023/01/12 00:38:55;;;;;;;;;3.25;1.00;;;;;;;;5115040;27;46279;-75
2023/01/12 00:46:48;;;;;;;;;5.00;2.75;;;;;;;;5113123;27;45364;-75
2023/01/12 00:49:14;;;;;;;;;2.00;2.00;;;;;;;;5114254;27;46918;-75
2023/01/12 00:51:39;;;;;;;;;6.50;2.25;;;;;;;;5112655;27;45547;-75
2023/01/12 00:54:07;;;;;;;;;5.00;2.00;;;;;;;;5111740;27;45409;-75
2023/01/12 00:56:36;;;;;;;;;5.50;2.00;;;;;;;;5116257;27;45398;-75
2023/01/12 00:59:02;;;;;;;;;1.50;1.50;;;;;;;;5114704;27;47883;-74
2023/01/12 01:01:27;;;;;;;;;1.00;1.00;;;;;;;;5110502;27;45471;-74
2023/01/12 01:03:53;;;;;;;;;3.00;1.00;;;;;;;;5115194;27;45597;-75
2023/01/12 01:06:19;;;;;;;;;3.00;0.00;;;;;;;;5114764;27;45344;-74
2023/01/12 01:08:45;;;;;;;;;1.50;1.00;;;;;;;;5114267;27;45359;-74
2023/01/12 01:11:10;;;;;;;;;2.00;1.75;;;;;;;;5112280;27;45348;-75
2023/01/12 01:13:39;;;;;;;;;2.00;1.00;;;;;;;;5112089;27;45377;-75
2023/01/12 01:16:04;;;;;;;;;1.00;1.00;;;;;;;;5117725;27;45568;-75
2023/01/12 01:18:30;;;;;;;;;2.75;1.00;;;;;;;;5117963;27;47182;-74
2023/01/12 01:20:56;;;;;;;;;3.50;2.25;;;;;;;;5117074;27;45514;-75
2023/01/12 01:23:22;;;;;;;;;1.00;1.00;;;;;;;;5118613;27;45443;-75
2023/01/12 01:25:48;;;;;;;;;2.00;1.00;;;;;;;;5117792;27;45414;-75
2023/01/12 01:28:14;;;;;;;;;2.25;1.50;;;;;;;;5117984;27;46009;-76
2023/01/12 01:30:39;;;;;;;;;2.00;1.25;;;;;;;;5117997;27;45371;-75
2023/01/12 01:33:05;;;;;;;;;1.00;1.00;;;;;;;;5116950;27;45492;-75
2023/01/12 01:35:31;;;;;;;;;1.00;1.00;;;;;;;;5117892;27;45398;-75
2023/01/12 01:37:56;;;;;;;;;1.00;1.00;;;;;;;;5116574;27;46135;-75
2023/01/12 01:40:21;;;;;;;;;2.25;1.25;;;;;;;;5117671;27;45387;-75
2023/01/12 01:42:47;;;;;;;;;0.00;0.00;;;;;;;;5117282;27;45419;-75
2023/01/12 01:45:13;;;;;;;;;1.00;1.00;;;;;;;;5113687;27;45528;-75
2023/01/12 01:47:53;;;;;;;;;2.25;1.25;;;;;;;;5115250;27;45405;-75
2023/01/12 01:50:25;;;;;;;;;1.50;1.50;;;;;;;;5116551;27;45304;-75
2023/01/12 01:52:55;;;;;;;;;0.25;0.25;;;;;;;;5116915;27;45541;-75
2023/01/12 01:55:25;;;;;;;;;2.75;1.00;;;;;;;;5117216;27;45407;-74
2023/01/12 01:57:50;;;;;;;;;1.25;1.00;;;;;;;;5115109;27;45443;-74
2023/01/12 02:00:16;;;;;;;;;1.75;1.25;;;;;;;;5117226;27;45412;-74
2023/01/12 02:02:42;;;;;;;;;0.75;0.75;;;;;;;;5117555;27;45603;-74
2023/01/12 02:05:09;;;;;;;;;3.00;2.00;;;;;;;;5112618;27;45468;-75
2023/01/12 02:07:34;;;;;;;;;3.25;1.75;;;;;;;;5114619;27;46254;-75
2023/01/12 02:10:00;;;;;;;;;2.00;1.00;;;;;;;;5117353;27;45317;-75
2023/01/12 02:18:12;;;;;;;;;4.25;1.00;;;;;;;;5113482;27;45544;-73
2023/01/12 02:20:47;;;;;;;;;4.00;2.75;;;;;;;;5115435;27;45455;-73
2023/01/12 02:23:12;;;;;;;;;3.25;0.00;;;;;;;;5112443;27;45370;-74
2023/01/12 02:25:37;;;;;;;;;4.25;2.00;;;;;;;;5112129;27;45269;-73
2023/01/12 02:28:03;;;;;;;;;0.50;0.25;;;;;;;;5116708;27;45358;-73
2023/01/12 02:30:50;;;;;;;;;1.00;0.00;;;;;;;;5112149;27;45320;-74
2023/01/12 02:33:26;;;;;;;;;1.00;1.00;;;;;;;;5115459;27;45511;-74
2023/01/12 02:35:57;;;;;;;;;3.00;1.00;;;;;;;;5114353;27;45404;-74
2023/01/12 02:38:32;;;;;;;;;0.00;0.00;;;;;;;;5115097;27;46734;-74
2023/01/12 02:41:04;;;;;;;;;1.50;1.00;;;;;;;;5114898;27;45511;-74
2023/01/12 02:43:30;;;;;;;;;1.00;0.50;;;;;;;;5115747;27;45332;-74
2023/01/12 02:46:00;;;;;;;;;3.00;0.00;;;;;;;;5113236;27;45362;-74
2023/01/12 02:48:33;;;;;;;;;2.50;1.00;;;;;;;;5116162;27;45477;-74
2023/01/12 02:50:58;;;;;;;;;0.25;0.25;;;;;;;;5114519;27;45505;-74
2023/01/12 02:53:29;;;;;;;;;3.00;1.00;;;;;;;;5116017;27;45534;-73
2023/01/12 02:55:58;;;;;;;;;2.50;2.50;;;;;;;;5112763;27;45304;-74
2023/01/12 02:58:24;;;;;;;;;5.50;1.00;;;;;;;;5116214;27;45627;-74
2023/01/12 03:00:53;;;;;;;;;0.00;0.00;;;;;;;;5110859;27;45859;-73
2023/01/12 03:03:19;;;;;;;;;1.00;1.00;;;;;;;;5115849;27;45415;-74
2023/01/12 03:05:46;;;;;;;;;1.75;1.00;;;;;;;;5113125;27;45491;-74
2023/01/12 03:08:14;;;;;;;;;2.00;0.75;;;;;;;;5113993;27;46075;-74
2023/01/12 03:10:42;;;;;;;;;1.00;1.00;;;;;;;;5108961;27;45682;-74
2023/01/12 03:13:12;;;;;;;;;3.00;1.25;;;;;;;;5115062;27;45501;-74
2023/01/12 03:15:40;;;;;;;;;4.00;2.25;;;;;;;;5113105;27;45335;-74
2023/01/12 03:18:09;;;;;;;;;1.25;1.25;;;;;;;;5114865;27;45342;-73
2023/01/12 03:20:40;;;;;;;;;1.50;0.75;;;;;;;;5113351;27;45398;-74
2023/01/12 03:23:08;;;;;;;;;3.25;2.00;;;;;;;;5114236;27;45499;-74
2023/01/12 03:25:35;;;;;;;;;4.75;1.00;;;;;;;;5112699;27;45523;-74
2023/01/12 03:28:03;;;;;;;;;2.50;1.50;;;;;;;;5114045;27;46885;-73
2023/01/12 03:30:40;;;;;;;;;3.75;1.00;;;;;;;;5115830;27;45348;-74
2023/01/12 03:33:06;;;;;;;;;2.00;1.00;;;;;;;;5114714;27;45503;-74
2023/01/12 03:35:34;;;;;;;;;2.25;1.25;;;;;;;;5115664;27;45472;-74
2023/01/12 03:38:08;;;;;;;;;2.75;2.00;;;;;;;;5112712;27;45638;-74
2023/01/12 03:40:37;;;;;;;;;2.00;0.75;;;;;;;;5113347;27;45568;-74
2023/01/12 03:43:11;;;;;;;;;2.00;1.00;;;;;;;;5115502;27;45390;-73
2023/01/12 03:45:41;;;;;;;;;1.75;1.50;;;;;;;;5114346;27;45371;-73
2023/01/12 03:48:11;;;;;;;;;3.00;2.00;;;;;;;;5109464;27;45513;-73
2023/01/12 03:50:43;;;;;;;;;1.25;1.25;;;;;;;;5112621;27;45383;-74
2023/01/12 03:53:09;;;;;;;;;2.50;1.25;;;;;;;;5114562;27;45344;-73
2023/01/12 03:55:36;;;;;;;;;2.00;1.00;;;;;;;;5114163;27;45338;-73
2023/01/12 03:58:04;;;;;;;;;2.00;1.00;;;;;;;;5115817;27;45451;-74
2023/01/12 04:00:29;;;;;;;;;2.25;0.00;;;;;;;;5114961;27;45410;-74
2023/01/12 04:03:12;;;;;;;;;3.50;1.00;;;;;;;;5116719;27;45321;-75
2023/01/12 04:05:38;;;;;;;;;3.00;1.00;;;;;;;;5115375;27;45352;-73
2023/01/12 04:08:04;;;;;;;;;0.75;0.25;;;;;;;;5114379;27;47171;-73
2023/01/12 04:10:29;;;;;;;;;1.00;1.00;;;;;;;;5114496;27;45447;-73
2023/01/12 04:12:55;;;;;;;;;0.25;0.25;;;;;;;;5114037;27;45418;-74
2023/01/12 04:15:20;;;;;;;;;1.00;1.00;;;;;;;;5114606;27;45742;-73
2023/01/12 04:17:45;;;;;;;;;1.00;1.00;;;;;;;;5113777;27;45459;-73
2023/01/12 04:20:11;;;;;;;;;1.00;1.00;;;;;;;;5113957;27;45573;-74
2023/01/12 04:22:42;;;;;;;;;1.50;0.00;;;;;;;;5112910;27;45939;-73
2023/01/12 04:25:08;;;;;;;;;2.00;0.50;;;;;;;;5113315;27;45508;-73
2023/01/12 04:27:34;;;;;;;;;3.25;1.00;;;;;;;;5113530;27;47929;-74
2023/01/12 04:30:00;;;;;;;;;0.50;0.50;;;;;;;;5114518;27;45477;-73
2023/01/12 04:32:26;;;;;;;;;1.00;1.00;;;;;;;;5114023;27;45454;-73
2023/01/12 04:34:51;;;;;;;;;1.25;1.00;;;;;;;;5114852;27;45535;-73
2023/01/12 04:37:17;;;;;;;;;2.25;1.00;;;;;;;;5114614;27;45924;-74
2023/01/12 04:39:43;;;;;;;;;2.00;2.00;;;;;;;;5113171;27;45689;-73
2023/01/12 04:42:59;;;;;;;;;4.50;0.00;;;;;;;;5110351;27;45454;-74
2023/01/12 04:44:54;;;;;;;;;1.00;1.00;;;;;;;;5114616;27;45656;-73
2023/01/12 04:47:20;;;;;;;;;2.25;1.00;;;;;;;;5114065;27;45362;-73
2023/01/12 04:49:45;;;;;;;;;1.25;1.00;;;;;;;;5116101;27;45450;-73
2023/01/12 04:52:11;;;;;;;;;4.00;0.75;;;;;;;;5117713;27;45344;-73
2023/01/12 04:54:36;;;;;;;;;1.75;1.00;;;;;;;;5118411;27;45237;-73
2023/01/12 04:57:02;;;;;;;;;1.25;1.00;;;;;;;;5115255;27;45320;-73
2023/01/12 04:59:28;;;;;;;;;0.00;0.00;;;;;;;;5117539;27;45316;-74
2023/01/12 05:01:53;;;;;;;;;1.00;1.00;;;;;;;;5117171;27;45296;-73
2023/01/12 05:04:18;;;;;;;;;0.50;0.00;;;;;;;;5117107;27;45548;-74
2023/01/12 05:06:43;;;;;;;;;3.00;0.25;;;;;;;;5118301;27;46534;-73
2023/01/12 05:11:53;;;;;;;;;2.25;1.00;;;;;;;;5117944;27;45267;-73
2023/01/12 05:14:18;;;;;;;;;3.00;2.00;;;;;;;;5116916;27;45527;-73
2023/01/12 05:16:43;;;;;;;;;2.25;1.25;;;;;;;;5118081;27;46232;-73
2023/01/12 05:19:09;;;;;;;;;1.00;1.00;;;;;;;;5118297;27;45792;-74
2023/01/12 05:21:34;;;;;;;;;2.50;0.75;;;;;;;;5115953;27;45388;-75
2023/01/12 05:24:00;;;;;;;;;0.50;0.50;;;;;;;;5117967;27;45339;-73
2023/01/12 05:26:25;;;;;;;;;0.00;0.00;;;;;;;;5116005;27;46263;-72
2023/01/12 05:28:51;;;;;;;;;3.50;0.75;;;;;;;;5096106;27;45450;-73
2023/01/12 05:31:18;;;;;;;;;3.00;1.00;;;;;;;;5117761;27;45460;-73
2023/01/12 05:33:44;;;;;;;;;3.50;0.25;;;;;;;;5117978;27;45412;-73
2023/01/12 05:36:11;;;;;;;;;4.50;2.75;;;;;;;;5117180;27;46079;-72
2023/01/12 05:38:37;;;;;;;;;2.00;2.00;;;;;;;;5117773;27;45379;-73
2023/01/12 05:41:03;;;;;;;;;1.25;1.25;;;;;;;;5118059;27;45302;-72
2023/01/12 05:46:13;;;;;;;;;3.25;0.75;;;;;;;;5117358;27;45334;-75
2023/01/12 05:48:38;;;;;;;;;2.00;0.00;;;;;;;;5117551;27;45406;-75
2023/01/12 05:51:05;;;;;;;;;2.00;1.00;;;;;;;;5117812;27;45678;-75
2023/01/12 05:53:31;;;;;;;;;3.75;2.00;;;;;;;;5117846;27;45494;-75
2023/01/12 05:55:57;;;;;;;;;1.00;1.00;;;;;;;;5115800;27;46235;-75
2023/01/12 05:58:22;;;;;;;;;3.00;2.00;;;;;;;;5117359;27;45501;-75
2023/01/12 06:00:48;;;;;;;;;2.25;1.00;;;;;;;;5116004;27;45470;-75
2023/01/12 06:03:13;;;;;;;;;1.50;0.75;;;;;;;;5117591;27;45493;-75
2023/01/12 06:05:39;;;;;;;;;2.75;1.00;;;;;;;;5117297;27;45478;-75
2023/01/12 06:08:04;;;;;;;;;1.00;1.00;;;;;;;;5114521;27;45479;-75
2023/01/12 06:10:31;;;;;;;;;2.00;0.00;;;;;;;;5114102;27;45427;-75
2023/01/12 06:15:41;;;;;;;;;0.00;0.00;;;;;;;;5115341;27;45392;-75
2023/01/12 06:18:06;;;;;;;;;2.00;0.00;;;;;;;;5113836;27;45520;-74
2023/01/12 06:20:32;;;;;;;;;0.00;0.00;;;;;;;;5116451;27;45342;-75
2023/01/12 06:23:01;;;;;;;;;2.00;0.50;;;;;;;;5117037;27;45257;-75
2023/01/12 06:25:28;;;;;;;;;2.00;0.00;;;;;;;;5113855;27;47896;-76
2023/01/12 06:27:54;;;;;;;;;3.50;0.75;;;;;;;;5098297;27;45808;-76
2023/01/12 06:30:19;;;;;;;;;0.75;0.00;;;;;;;;5115077;27;46119;-76
2023/01/12 06:32:44;;;;;;;;;2.25;0.25;;;;;;;;5112321;27;45406;-76
2023/01/12 06:35:10;;;;;;;;;0.00;0.00;;;;;;;;5115119;27;46806;-76
2023/01/12 06:37:35;;;;;;;;;0.00;0.00;;;;;;;;5114845;27;45480;-76
2023/01/12 06:40:00;;;;;;;;;0.00;0.00;;;;;;;;5116189;27;45412;-76
2023/01/12 06:42:28;;;;;;;;;0.00;0.00;;;;;;;;5116937;27;45382;-76
2023/01/12 06:44:54;;;;;;;;;0.50;0.50;;;;;;;;5116508;27;46119;-76
2023/01/12 06:47:20;;;;;;;;;1.75;0.00;;;;;;;;5116630;27;45401;-75
2023/01/12 06:49:51;;;;;;;;;2.25;0.75;;;;;;;;5116754;27;45346;-75
2023/01/12 06:52:17;;;;;;;;;1.00;0.00;;;;;;;;5111644;27;45475;-74
2023/01/12 06:54:43;;;;;;;;;1.75;0.00;;;;;;;;5095850;27;46739;-74
2023/01/12 06:57:08;;;;;;;;;0.00;0.00;;;;;;;;5114453;27;45346;-75
2023/01/12 06:59:33;;;;;;;;;0.00;0.00;;;;;;;;5115621;27;45353;-75
2023/01/12 07:01:58;;;;;;;;;2.00;1.00;;;;;;;;5115678;27;45491;-75
2023/01/12 07:04:24;;;;;;;;;0.50;0.00;;;;;;;;5115592;27;47469;-75
2023/01/12 07:06:52;;;;;;;;;1.75;0.00;;;;;;;;5116216;27;45250;-75
2023/01/12 07:09:17;;;;;;;;;0.75;0.00;;;;;;;;5113312;27;46154;-74
2023/01/12 07:11:42;;;;;;;;;1.00;0.00;;;;;;;;5115202;27;45614;-74
2023/01/12 07:14:07;;;;;;;;;0.50;0.50;;;;;;;;5118441;27;46219;-74
2023/01/12 07:16:33;;;;;;;;;0.50;0.00;;;;;;;;5117192;27;45410;-74
2023/01/12 07:18:58;;;;;;;;;0.00;0.00;;;;;;;;5119012;27;45381;-75
2023/01/12 07:21:24;;;;;;;;;0.00;0.00;;;;;;;;5118036;27;45317;-74
2023/01/12 07:23:49;;;;;;;;;0.75;0.75;;;;;;;;5098241;27;47229;-74
2023/01/12 07:26:14;;;;;;;;;0.00;0.00;;;;;;;;5116983;27;45446;-74
2023/01/12 07:28:39;;;;;;;;;2.00;0.00;;;;;;;;5116779;27;45548;-73
2023/01/12 07:31:05;;;;;;;;;0.25;0.25;;;;;;;;5117064;27;45463;-73
2023/01/12 07:33:31;;;;;;;;;0.25;0.00;;;;;;;;5117114;27;45501;-75
2023/01/12 07:36:00;;;;;;;;;0.00;0.00;;;;;;;;5116943;27;45416;-75
2023/01/12 07:38:28;;;;;;;;;2.00;0.00;;;;;;;;5116959;27;45361;-75
2023/01/12 07:40:53;;;;;;;;;2.25;1.00;;;;;;;;5116641;27;45345;-74
2023/01/12 07:43:19;;;;;;;;;3.25;0.75;;;;;;;;5116935;27;45435;-74
2023/01/12 07:45:45;;;;;;;;;0.25;0.25;;;;;;;;5115767;27;45421;-75
2023/01/12 07:48:10;;;;;;;;;0.00;0.00;;;;;;;;5116956;27;45272;-75
2023/01/12 07:50:36;;;;;;;;;1.00;0.00;;;;;;;;5115680;27;45260;-75
2023/01/12 07:53:01;;;;;;;;;0.50;0.25;;;;;;;;5116742;27;46217;-75
2023/01/12 07:55:27;;;;;;;;;0.00;0.00;;;;;;;;5115078;27;45415;-75
2023/01/12 07:57:53;;;;;;;;;3.00;0.00;;;;;;;;5116814;27;45277;-72
2023/01/12 08:00:22;;;;;;;;;2.00;0.00;;;;;;;;5116808;27;45437;-75
2023/01/12 08:02:51;;;;;;;;;0.00;0.00;;;;;;;;5116444;27;46261;-75
2023/01/12 08:05:17;;;;;;;;;1.00;0.00;;;;;;;;5115997;27;45392;-75
2023/01/12 08:07:42;;;;;;;;;1.25;0.00;;;;;;;;5115991;27;45382;-75
2023/01/12 08:10:08;;;;;;;;;0.00;0.00;;;;;;;;5116218;27;45246;-75
2023/01/12 08:12:34;;;;;;;;;0.00;0.00;;;;;;;;5115651;27;45346;-76
2023/01/12 08:15:02;;;;;;;;;2.00;0.00;;;;;;;;5116185;27;45617;-75
2023/01/12 08:17:30;;;;;;;;;3.50;0.00;;;;;;;;5116178;27;45393;-75
2023/01/12 08:20:00;;;;;;;;;1.00;1.00;;;;;;;;5113652;27;45353;-75
2023/01/12 08:22:34;;;;;;;;;0.75;0.75;;;;;;;;5114860;27;45881;-75
2023/01/12 08:25:02;;;;;;;;;0.00;0.00;;;;;;;;5117495;27;45499;-75
2023/01/12 08:27:30;;;;;;;;;0.25;0.00;;;;;;;;5119214;27;45338;-72
2023/01/12 08:29:58;;;;;;;;;0.67;0.67;;;;;;;;5120288;27;45340;-75
2023/01/12 08:32:25;;;;;;;;;2.00;1.00;;;;;;;;5118807;27;47212;-76
2023/01/12 08:34:52;;;;;;;;;0.50;0.00;;;;;;;;5119699;27;45439;-75
2023/01/12 08:37:20;;;;;;;;;0.00;0.00;;;;;;;;5118556;27;45518;-75
2023/01/12 08:39:45;;;;;;;;;1.00;1.00;;;;;;;;5119633;27;45518;-75
2023/01/12 08:42:10;;;;;;;;;0.00;0.00;;;;;;;;5118485;27;47336;-75
2023/01/12 08:44:36;;;;;;;;;1.50;0.00;;;;;;;;5119804;27;45361;-75
2023/01/12 08:47:02;;;;;;;;;1.00;1.00;;;;;;;;5122779;27;45420;-75
2023/01/12 08:49:28;;;;;;;;;0.00;0.00;;;;;;;;5140759;27;45421;-75
2023/01/12 08:51:54;;;;;;;;;0.00;0.00;;;;;;;;5140480;27;46263;-75
2023/01/12 08:54:19;;;;;;;;;1.00;0.00;;;;;;;;5133389;27;45234;-75
2023/01/12 08:56:45;;;;;;;;;1.75;0.50;;;;;;;;5118751;27;45307;-75
2023/01/12 08:59:11;;;;;;;;;1.00;0.00;;;;;;;;5119553;27;45274;-75
2023/01/12 09:01:37;;;;;;;;;1.50;0.00;;;;;;;;5119677;27;45398;-75
2023/01/12 09:04:03;;;;;;;;;0.00;0.00;;;;;;;;5119619;27;45786;-76
2023/01/12 09:06:34;;;;;;;;;0.50;0.00;;;;;;;;5119207;27;45348;-75
2023/01/12 09:09:00;;;;;;;;;1.00;0.75;;;;;;;;5119418;27;45451;-75
2023/01/12 09:11:27;;;;;;;;;2.00;0.25;;;;;;;;5117708;27;45673;-76
2023/01/12 09:13:54;;;;;;;;;2.75;1.00;;;;;;;;5119340;27;45450;-74
2023/01/12 09:16:20;;;;;;;;;0.50;0.00;;;;;;;;5101341;27;45409;-75
2023/01/12 09:18:45;;;;;;;;;0.00;0.00;;;;;;;;5119193;27;45484;-75
2023/01/12 09:21:10;;;;;;;;;0.75;0.75;;;;;;;;5119099;27;45951;-75
2023/01/12 09:23:35;;;;;;;;;1.50;0.75;;;;;;;;5119120;27;45340;-74
2023/01/12 09:26:02;;;;;;;;;1.25;0.00;;;;;;;;5117905;27;45264;-74
2023/01/12 09:28:27;;;;;;;;;1.50;0.00;;;;;;;;5117684;27;45421;-75
2023/01/12 09:30:52;;;;;;;;;2.00;2.00;;;;;;;;5119070;27;45458;-75
2023/01/12 09:33:18;;;;;;;;;1.50;1.00;;;;;;;;5119485;27;45433;-75
2023/01/12 09:35:43;;;;;;;;;0.75;0.75;;;;;;;;5117026;27;45331;-75
2023/01/12 09:38:09;;;;;;;;;1.00;1.00;;;;;;;;5118780;27;45306;-75
2023/01/12 09:40:35;;;;;;;;;3.00;1.00;;;;;;;;5118567;27;45528;-75
2023/01/12 09:48:29;;;;;;;;;0.75;0.75;;;;;;;;5118675;27;45348;-75
2023/01/12 09:51:09;;;;;;;;;0.00;0.00;;;;;;;;5118579;27;46059;-75
2023/01/12 09:53:37;;;;;;;;;2.00;1.00;;;;;;;;5118884;27;45464;-74
2023/01/12 09:56:27;;;;;;;;;3.00;1.00;;;;;;;;5117379;27;45517;-75
2023/01/12 09:59:02;;;;;;;;;1.50;0.75;;;;;;;;5118641;27;45379;-75
2023/01/12 10:01:28;;;;;;;;;1.50;1.50;;;;;;;;5118330;27;45557;-74
2023/01/12 10:03:54;;;;;;;;;0.25;0.00;;;;;;;;5118571;27;45917;-75
2023/01/12 10:06:19;;;;;;;;;0.75;0.75;;;;;;;;5118701;27;45390;-75
2023/01/12 10:08:53;;;;;;;;;0.75;0.00;;;;;;;;5118988;27;45439;-76
2023/01/12 10:11:24;;;;;;;;;1.00;0.00;;;;;;;;5118324;27;45360;-75
2023/01/12 10:14:18;;;;;;;;;2.50;1.75;;;;;;;;5118749;27;45276;-75
2023/01/12 10:16:50;;;;;;;;;0.25;0.00;;;;;;;;5109469;27;45306;-75
2023/01/12 10:19:38;;;;;;;;;0.00;0.00;;;;;;;;5120139;27;45370;-75
2023/01/12 10:22:36;;;;;;;;;0.25;0.00;;;;;;;;5120453;27;45293;-74
2023/01/12 10:25:13;;;;;;;;;1.50;1.00;;;;;;;;5116568;27;45354;-75
2023/01/12 10:27:40;;;;;;;;;1.00;1.00;;;;;;;;5118956;27;45558;-75
2023/01/12 10:30:14;;;;;;;;;0.75;0.00;;;;;;;;5117609;27;45384;-75
2023/01/12 10:32:40;;;;;;;;;0.00;0.00;;;;;;;;5115938;27;46290;-75
2023/01/12 10:35:11;;;;;;;;;0.00;0.00;;;;;;;;5117427;27;45338;-75
2023/01/12 10:37:43;;;;;;;;;0.00;0.00;;;;;;;;5117612;27;45371;-75
2023/01/12 10:40:19;;;;;;;;;1.00;0.00;;;;;;;;5115562;27;45555;-75
2023/01/12 10:45:34;;;;;;;;;0.25;0.00;;;;;;;;5115525;27;45391;-75
2023/01/12 10:48:00;;;;;;;;;0.25;0.00;;;;;;;;5097383;27;45459;-75
2023/01/12 10:50:30;;;;;;;;;0.00;0.00;;;;;;;;5117025;27;45423;-75
2023/01/12 10:53:00;;;;;;;;;0.00;0.00;;;;;;;;5117879;27;45444;-75
2023/01/12 10:55:29;;;;;;;;;0.00;0.00;;;;;;;;5117828;27;45571;-75
2023/01/12 10:57:54;;;;;;;;;0.00;0.00;;;;;;;;5116592;27;45370;-75
2023/01/12 11:00:21;;;;;;;;;0.50;0.00;;;;;;;;5116433;27;45279;-75
2023/01/12 11:02:47;;;;;;;;;0.00;0.00;;;;;;;;5116208;27;48183;-75
2023/01/12 11:05:37;;;;;;;;;1.50;0.00;;;;;;;;5117103;27;45425;-75
2023/01/12 11:08:02;;;;;;;;;0.00;0.00;;;;;;;;5117461;27;45345;-75
2023/01/12 11:10:34;;;;;;;;;0.00;0.00;;;;;;;;5117071;27;45489;-75
2023/01/12 11:13:02;;;;;;;;;0.00;0.00;;;;;;;;5116942;27;46394;-75
2023/01/12 11:15:28;;;;;;;;;1.00;0.00;;;;;;;;5117289;27;45275;-75
2023/01/12 11:18:02;;;;;;;;;1.00;0.00;;;;;;;;5116799;27;45312;-75
2023/01/12 11:20:34;;;;;;;;;1.00;1.00;;;;;;;;5117079;27;45365;-74
2023/01/12 11:23:01;;;;;;;;;1.00;0.00;;;;;;;;5115845;27;46825;-74
2023/01/12 11:25:29;;;;;;;;;0.50;0.00;;;;;;;;5117369;27;45372;-76
2023/01/12 11:28:03;;;;;;;;;0.00;0.00;;;;;;;;5117232;27;45433;-76
2023/01/12 11:30:43;;;;;;;;;1.50;0.00;;;;;;;;5115948;27;45380;-75
2023/01/12 11:33:21;;;;;;;;;0.50;0.50;;;;;;;;5116793;27;46402;-75
2023/01/12 11:35:57;;;;;;;;;2.50;1.00;;;;;;;;5115786;27;45350;-76
2023/01/12 11:38:43;;;;;;;;;1.00;0.00;;;;;;;;5117573;27;45289;-75
2023/01/12 11:41:28;;;;;;;;;2.00;1.00;;;;;;;;5116647;27;45685;-76
2023/01/12 11:44:04;;;;;;;;;1.00;0.00;;;;;;;;5105575;27;46281;-75
2023/01/12 11:46:45;;;;;;;;;0.00;0.00;;;;;;;;5116668;27;45777;-77
2023/01/12 11:52:14;;;;;;;;;1.25;0.00;;;;;;;;5106810;27;46076;-74
2023/01/12 11:54:40;;;;;;;;;0.00;0.00;;;;;;;;5108067;27;45498;-73
2023/01/12 11:57:23;;;;;;;;;0.00;0.00;;;;;;;;5130350;27;45464;-74
2023/01/12 11:59:55;;;;;;;;;1.50;0.00;;;;;;;;5098980;27;45524;-73
2023/01/12 12:02:40;;;;;;;;;2.00;0.00;;;;;;;;5123993;27;45365;-74
2023/01/12 12:05:12;;;;;;;;;2.00;1.00;;;;;;;;5121383;27;45650;-74
2023/01/12 12:07:43;;;;;;;;;1.00;0.00;;;;;;;;5131503;27;45567;-74
2023/01/12 12:19:11;;;;;;;;;1.00;0.00;;;;;;;;5478710;23;46745;-81
2023/01/12 12:21:40;;;;;;;;;1.00;1.00;;;;;;;;4974215;23;45919;-73
2023/01/12 12:24:11;;;;;;;;;0.00;0.00;;;;;;;;4917718;28;45516;-73
2023/01/12 12:26:42;;;;;;;;;0.00;0.00;;;;;;;;4941930;28;45424;-73
2023/01/12 12:29:25;;;;;;;;;0.00;0.00;;;;;;;;4917327;28;45604;-73
2023/01/12 12:31:56;;;;;;;;;0.00;0.00;;;;;;;;4916420;28;45534;-73
2023/01/12 12:34:25;;;;;;;;;0.00;0.00;;;;;;;;4947536;28;45443;-75
2023/01/12 12:37:05;;;;;;;;;0.00;0.00;;;;;;;;4916436;28;46110;-73
2023/01/12 12:39:34;;;;;;;;;1.50;1.50;;;;;;;;4902918;28;45334;-72
2023/01/12 12:45:16;;;;;;;;;1.00;1.00;;;;;;;;4917005;28;45322;-73
2023/01/12 12:47:56;;;;;;;;;1.75;0.50;;;;;;;;4916745;28;46178;-73
2023/01/12 12:50:21;;;;;;;;;0.00;0.00;;;;;;;;4917144;28;45302;-74
2023/01/12 12:52:51;;;;;;;;;1.00;0.00;;;;;;;;4917179;28;45352;-74
2023/01/12 12:55:16;;;;;;;;;0.00;0.00;;;;;;;;4917048;28;45362;-74
2023/01/12 12:58:01;;;;;;;;;0.00;0.00;;;;;;;;4916628;28;46660;-74
2023/01/12 13:00:45;;;;;;;;;0.00;0.00;;;;;;;;4916328;28;45391;-74
2023/01/12 13:03:30;;;;;;;;;0.00;0.00;;;;;;;;4916498;28;45357;-74
2023/01/12 13:06:09;;;;;;;;;0.00;0.00;;;;;;;;4916231;28;45644;-74
2023/01/12 13:08:34;;;;;;;;;1.25;1.00;;;;;;;;4916347;28;45570;-73
2023/01/12 13:11:00;;;;;;;;;1.00;0.25;;;;;;;;4919094;28;45277;-73
2023/01/12 13:13:35;;;;;;;;;0.00;0.00;;;;;;;;4919729;28;45284;-73
2023/01/12 13:16:18;;;;;;;;;0.00;0.00;;;;;;;;4920258;28;45429;-73
2023/01/12 13:18:50;;;;;;;;;0.00;0.00;;;;;;;;4919990;28;47410;-74
2023/01/12 13:21:31;;;;;;;;;0.00;0.00;;;;;;;;4918968;28;45445;-74
2023/01/12 13:24:08;;;;;;;;;0.00;0.00;;;;;;;;4920278;28;45389;-73
2023/01/12 13:26:34;;;;;;;;;1.00;0.00;;;;;;;;4919892;28;45472;-73
2023/01/12 13:29:18;;;;;;;;;0.00;0.00;;;;;;;;4919297;28;47219;-73
2023/01/12 13:31:43;;;;;;;;;0.00;0.00;;;;;;;;4919678;28;45391;-73
2023/01/12 13:34:27;;;;;;;;;0.50;0.50;;;;;;;;4919597;28;45424;-73
2023/01/12 13:37:11;;;;;;;;;2.00;0.00;;;;;;;;4919686;28;45402;-73
2023/01/12 13:39:41;;;;;;;;;1.50;1.00;;;;;;;;4905994;28;46088;-73
2023/01/12 13:44:56;;;;;;;;;1.75;0.75;;;;;;;;4919155;28;45333;-73
2023/01/12 13:47:26;;;;;;;;;0.00;0.00;;;;;;;;4919393;28;45279;-73
2023/01/12 13:49:55;;;;;;;;;1.00;1.00;;;;;;;;4919178;28;45544;-74
2023/01/12 13:52:26;;;;;;;;;1.25;0.00;;;;;;;;4919212;28;45231;-73
2023/01/12 13:54:52;;;;;;;;;0.25;0.00;;;;;;;;4919249;28;45598;-73
2023/01/12 13:57:19;;;;;;;;;0.00;0.00;;;;;;;;4934131;28;45706;-72
2023/01/12 14:00:03;;;;;;;;;0.00;0.00;;;;;;;;4917501;28;47839;-72
2023/01/12 14:02:31;;;;;;;;;0.00;0.00;;;;;;;;4918757;28;45374;-74
2023/01/12 14:04:59;;;;;;;;;0.00;0.00;;;;;;;;4918660;28;45320;-74
2023/01/12 14:07:34;;;;;;;;;0.00;0.00;;;;;;;;4926235;28;45653;-73
2023/01/12 14:10:18;;;;;;;;;0.25;0.00;;;;;;;;4918579;28;46014;-73
2023/01/12 14:12:46;;;;;;;;;0.00;0.00;;;;;;;;4916858;28;45288;-72
2023/01/12 14:18:08;;;;;;;;;0.00;0.00;;;;;;;;4938016;28;45301;-73
2023/01/12 14:20:39;;;;;;;;;0.50;0.50;;;;;;;;4938278;28;45408;-73
2023/01/12 14:23:12;;;;;;;;;1.00;0.00;;;;;;;;4932080;28;45464;-73
2023/01/12 14:25:37;;;;;;;;;0.50;0.50;;;;;;;;4939091;28;45456;-73
2023/01/12 14:28:02;;;;;;;;;0.75;0.00;;;;;;;;4938665;28;45278;-73
2023/01/12 14:30:27;;;;;;;;;1.00;1.00;;;;;;;;4938856;28;45225;-74
2023/01/12 14:32:53;;;;;;;;;1.00;0.00;;;;;;;;4938487;28;45443;-72
2023/01/12 14:35:19;;;;;;;;;1.50;0.00;;;;;;;;4939143;28;45355;-74
2023/01/12 14:37:50;;;;;;;;;2.25;1.00;;;;;;;;4939258;28;45464;-73
2023/01/12 14:40:19;;;;;;;;;0.00;0.00;;;;;;;;4938642;28;45340;-73
2023/01/12 14:48:27;;;;;;;;;0.50;0.50;;;;;;;;4940284;28;45407;-73
2023/01/12 14:50:59;;;;;;;;;1.00;1.00;;;;;;;;4939778;28;45433;-73
2023/01/12 14:53:29;;;;;;;;;0.00;0.00;;;;;;;;4939349;28;45237;-73
2023/01/12 14:56:04;;;;;;;;;0.50;0.50;;;;;;;;4938437;28;45187;-73
2023/01/12 14:58:30;;;;;;;;;2.00;1.00;;;;;;;;4938507;28;45334;-73
2023/01/12 15:00:55;;;;;;;;;0.75;0.25;;;;;;;;4937677;28;45275;-73
2023/01/12 15:03:22;;;;;;;;;1.50;1.50;;;;;;;;4938063;28;45299;-73
2023/01/12 15:05:53;;;;;;;;;1.00;1.00;;;;;;;;4938125;28;45380;-73
2023/01/12 15:08:31;;;;;;;;;1.00;1.00;;;;;;;;4937790;28;45270;-74
2023/01/12 15:10:57;;;;;;;;;2.00;1.50;;;;;;;;4937444;28;47022;-73
2023/01/12 15:13:32;;;;;;;;;2.00;1.00;;;;;;;;4937884;28;45432;-73
2023/01/12 15:27:03;;;;;;;;;1.75;0.00;;;;;;;;4918711;28;45382;-73
2023/01/12 15:29:28;;;;;;;;;1.75;0.50;;;;;;;;4918287;28;45390;-73
2023/01/12 15:31:53;;;;;;;;;0.00;0.00;;;;;;;;4917881;28;45424;-73
2023/01/12 15:34:18;;;;;;;;;1.50;1.00;;;;;;;;4918342;28;45399;-73
2023/01/12 15:36:44;;;;;;;;;1.00;1.00;;;;;;;;4918685;28;45374;-73
2023/01/12 15:39:12;;;;;;;;;2.00;1.00;;;;;;;;4918465;28;45378;-73
2023/01/12 15:44:21;;;;;;;;;3.00;2.00;;;;;;;;4918383;28;45402;-73
2023/01/12 15:46:46;;;;;;;;;0.00;0.00;;;;;;;;4909644;28;45694;-73
2023/01/12 15:49:14;;;;;;;;;2.75;1.00;;;;;;;;4910873;28;45521;-73
2023/01/12 15:51:49;;;;;;;;;1.00;1.00;;;;;;;;4917927;28;45398;-73
2023/01/12 15:54:16;;;;;;;;;1.00;1.00;;;;;;;;4917542;28;45486;-73
2023/01/12 15:56:41;;;;;;;;;0.50;0.00;;;;;;;;4918021;28;45393;-73
2023/01/12 15:59:07;;;;;;;;;6.50;2.00;;;;;;;;4917643;28;45353;-73
2023/01/12 16:01:34;;;;;;;;;3.25;1.00;;;;;;;;4917327;28;45491;-73
2023/01/12 16:03:59;;;;;;;;;2.00;2.00;;;;;;;;4917591;28;45444;-73